createdAt,value
2023-03-26T00:01:19.461Z,1.40
2023-03-26T00:03:47.190Z,1.33
2023-03-26T00:06:15.989Z,1.20
2023-03-26T00:08:44.900Z,1.38
2023-03-26T00:11:13.172Z,1.00
2023-03-26T00:13:46.059Z,1.02
2023-03-26T00:16:14.350Z,0.82
2023-03-26T00:18:42.629Z,1.00
2023-03-26T00:21:11.637Z,0.80
2023-03-26T00:23:38.828Z,1.38
2023-03-26T00:26:13.023Z,1.20
2023-03-26T00:28:41.493Z,1.20
2023-03-26T00:31:13.239Z,0.80
2023-03-26T00:33:41.385Z,1.17
2023-03-26T00:36:10.942Z,0.63
2023-03-26T00:38:39.287Z,0.60
2023-03-26T00:41:07.989Z,0.82
2023-03-26T00:43:36.176Z,0.57
2023-03-26T00:46:03.674Z,0.98
2023-03-26T00:48:44.122Z,0.88
2023-03-26T00:51:12.680Z,0.60
2023-03-26T00:53:41.269Z,0.90
2023-03-26T00:56:21.823Z,0.70
2023-03-26T00:58:51.814Z,0.80
2023-03-26T01:01:27.961Z,0.88
2023-03-26T01:04:08.291Z,1.10
2023-03-26T01:06:38.374Z,0.80
2023-03-26T01:09:13.505Z,1.17
2023-03-26T01:11:40.793Z,1.40
2023-03-26T01:14:11.138Z,1.05
2023-03-26T01:19:46.442Z,1.10
2023-03-26T01:22:16.531Z,1.45
2023-03-26T01:24:46.155Z,1.10
2023-03-26T01:27:18.142Z,1.52
2023-03-26T01:29:49.184Z,1.50
2023-03-26T01:32:25.745Z,1.15
2023-03-26T01:35:13.187Z,1.00
2023-03-26T01:37:59.028Z,1.40
2023-03-26T01:40:38.574Z,1.60
2023-03-26T01:43:12.776Z,1.38
2023-03-26T01:45:42.256Z,1.80
2023-03-26T01:48:09.536Z,1.67
2023-03-26T01:53:03.348Z,1.75
2023-03-26T01:55:38.254Z,2.28
2023-03-26T01:58:13.527Z,2.22
2023-03-26T02:00:49.580Z,2.58
2023-03-26T02:03:28.595Z,2.20
2023-03-26T02:05:59.556Z,1.80
2023-03-26T02:08:38.137Z,2.22
2023-03-26T02:11:13.117Z,1.90
2023-03-26T02:13:41.696Z,2.05
2023-03-26T02:16:12.228Z,1.80
2023-03-26T02:18:39.441Z,2.80
2023-03-26T02:21:12.369Z,1.85
2023-03-26T02:23:46.920Z,2.33
2023-03-26T02:26:15.462Z,2.10
2023-03-26T02:28:42.666Z,2.20
2023-03-26T02:31:11.129Z,2.58
2023-03-26T02:33:38.557Z,1.90
2023-03-26T02:36:06.114Z,2.35
2023-03-26T02:38:35.235Z,1.63
2023-03-26T02:41:03.279Z,2.00
2023-03-26T02:43:30.799Z,1.83
2023-03-26T02:45:58.662Z,2.50
2023-03-26T02:48:26.298Z,2.33
2023-03-26T02:50:56.625Z,2.30
2023-03-26T02:53:29.875Z,2.72
2023-03-26T02:55:57.690Z,2.58
2023-03-26T02:58:25.372Z,2.47
2023-03-26T03:00:55.096Z,2.10
2023-03-26T03:03:26.423Z,2.00
2023-03-26T03:05:54.701Z,3.45
2023-03-26T03:08:23.079Z,2.80
2023-03-26T03:10:57.501Z,2.83
2023-03-26T03:13:24.821Z,3.15
2023-03-26T03:15:52.294Z,3.03
2023-03-26T03:18:19.510Z,3.00
2023-03-26T03:20:47.192Z,3.20
2023-03-26T03:23:14.608Z,3.65
2023-03-26T03:25:41.750Z,3.53
2023-03-26T03:28:09.591Z,3.67
2023-03-26T03:30:36.861Z,2.95
2023-03-26T03:33:06.136Z,3.17
2023-03-26T03:35:33.749Z,2.70
2023-03-26T03:38:01.187Z,3.03
2023-03-26T03:40:28.405Z,3.17
2023-03-26T03:42:55.696Z,2.70
2023-03-26T03:45:22.849Z,2.78
2023-03-26T03:47:50.710Z,2.63
2023-03-26T03:50:17.962Z,2.47
2023-03-26T03:52:45.539Z,2.20
2023-03-26T03:55:14.269Z,3.03
2023-03-26T03:57:41.819Z,2.88
2023-03-26T04:00:10.043Z,2.78
2023-03-26T04:02:37.336Z,5.32
2023-03-26T04:05:05.542Z,4.47
2023-03-26T04:07:33.529Z,2.55
2023-03-26T04:10:03.188Z,2.40
2023-03-26T04:12:31.007Z,2.47
2023-03-26T04:14:59.113Z,2.47
2023-03-26T04:17:26.476Z,3.58
2023-03-26T04:19:55.308Z,8.93
2023-03-26T04:22:23.659Z,2.97
2023-03-26T04:24:54.392Z,2.10
2023-03-26T04:27:27.347Z,2.42
2023-03-26T04:29:54.715Z,2.35
2023-03-26T04:32:34.551Z,2.15
2023-03-26T04:35:05.385Z,1.55
2023-03-26T04:37:34.864Z,1.92
2023-03-26T04:40:06.318Z,2.67
2023-03-26T04:42:33.805Z,2.13
2023-03-26T04:45:03.257Z,2.60
2023-03-26T04:47:30.613Z,2.22
2023-03-26T04:49:57.802Z,2.20
2023-03-26T04:52:25.040Z,3.08
2023-03-26T04:54:52.593Z,2.03
2023-03-26T04:57:38.380Z,2.03
2023-03-26T05:00:15.149Z,2.72
2023-03-26T05:02:43.395Z,2.40
2023-03-26T05:05:11.640Z,1.90
2023-03-26T05:07:39.168Z,2.10
2023-03-26T05:10:06.963Z,2.58
2023-03-26T05:12:34.847Z,1.95
2023-03-26T05:15:02.050Z,1.83
2023-03-26T05:17:31.048Z,3.13
2023-03-26T05:19:58.581Z,2.88
2023-03-26T05:22:25.798Z,3.38
2023-03-26T05:24:53.121Z,3.10
2023-03-26T05:27:20.278Z,3.80
2023-03-26T05:29:47.454Z,4.03
2023-03-26T05:32:14.809Z,3.90
2023-03-26T05:34:42.251Z,4.38
2023-03-26T05:37:09.458Z,4.05
2023-03-26T05:39:36.703Z,3.33
2023-03-26T05:42:04.125Z,4.72
2023-03-26T05:44:33.950Z,5.53
2023-03-26T05:47:01.104Z,4.35
2023-03-26T05:49:28.273Z,5.10
2023-03-26T05:51:55.729Z,5.07
2023-03-26T05:54:23.865Z,10.63
2023-03-26T05:56:51.231Z,6.65
2023-03-26T05:59:18.475Z,4.93
2023-03-26T06:01:45.694Z,4.07
2023-03-26T06:04:13.728Z,4.47
2023-03-26T06:06:41.305Z,3.95
2023-03-26T06:09:08.508Z,8.10
2023-03-26T06:11:35.820Z,5.78
2023-03-26T06:14:03.050Z,5.07
2023-03-26T06:16:30.291Z,5.70
2023-03-26T06:18:58.103Z,6.35
2023-03-26T06:21:28.580Z,6.13
2023-03-26T06:23:56.236Z,3.13
2023-03-26T06:26:23.409Z,3.00
2023-03-26T06:28:50.591Z,2.30
2023-03-26T06:31:19.310Z,2.25
2023-03-26T06:33:47.057Z,2.05
2023-03-26T06:36:14.309Z,1.92
2023-03-26T06:38:41.879Z,2.38
2023-03-26T06:41:08.981Z,2.17
2023-03-26T06:43:37.038Z,1.45
2023-03-26T06:46:04.510Z,2.03
2023-03-26T06:48:32.104Z,2.55
2023-03-26T06:50:59.557Z,2.25
2023-03-26T06:53:26.770Z,1.65
2023-03-26T06:55:54.809Z,1.75
2023-03-26T06:58:22.498Z,1.52
2023-03-26T07:00:53.410Z,1.33
2023-03-26T07:03:21.038Z,1.67
2023-03-26T07:05:48.497Z,2.38
2023-03-26T07:08:16.065Z,1.45
2023-03-26T07:10:43.290Z,1.58
2023-03-26T07:13:10.570Z,1.65
2023-03-26T07:15:37.740Z,1.60
2023-03-26T07:18:05.110Z,1.88
2023-03-26T07:20:32.492Z,1.63
2023-03-26T07:23:02.830Z,1.92
2023-03-26T07:25:32.358Z,1.90
2023-03-26T07:28:08.614Z,1.30
2023-03-26T07:30:50.766Z,1.38
2023-03-26T07:33:25.793Z,1.27
2023-03-26T07:36:08.531Z,1.52
2023-03-26T07:38:56.083Z,2.13
2023-03-26T07:41:42.175Z,1.75
2023-03-26T07:44:28.230Z,1.27
2023-03-26T07:46:55.467Z,1.80
2023-03-26T07:49:22.914Z,1.30
2023-03-26T07:51:50.288Z,1.42
2023-03-26T07:54:17.610Z,1.35
2023-03-26T07:56:58.064Z,1.73
2023-03-26T07:59:26.294Z,1.40
2023-03-26T08:02:05.819Z,1.80
2023-03-26T08:04:42.281Z,1.60
2023-03-26T08:07:18.584Z,1.55
2023-03-26T08:10:03.345Z,1.60
2023-03-26T08:12:30.792Z,1.48
2023-03-26T08:14:57.965Z,1.73
2023-03-26T08:17:32.334Z,1.35
2023-03-26T08:20:09.397Z,1.85
2023-03-26T08:22:41.815Z,2.05
2023-03-26T08:25:20.718Z,2.42
2023-03-26T08:27:52.348Z,1.90
2023-03-26T08:30:27.018Z,1.60
2023-03-26T08:32:58.735Z,1.52
2023-03-26T08:35:27.231Z,1.75
2023-03-26T08:37:54.536Z,1.52
2023-03-26T08:40:40.382Z,1.83
2023-03-26T08:43:18.029Z,1.27
2023-03-26T08:45:57.404Z,1.70
2023-03-26T08:48:29.103Z,1.73
2023-03-26T08:50:56.336Z,2.10
2023-03-26T08:53:42.703Z,2.35
2023-03-26T08:56:33.441Z,6.30
2023-03-26T08:59:19.254Z,3.63
2023-03-26T09:02:05.605Z,2.78
2023-03-26T09:05:03.894Z,2.33
2023-03-26T09:07:49.709Z,2.83
2023-03-26T09:10:29.573Z,2.40
2023-03-26T09:12:56.736Z,1.73
2023-03-26T09:15:42.456Z,4.20
2023-03-26T09:18:28.519Z,3.38
2023-03-26T09:21:11.243Z,2.20
2023-03-26T09:23:49.740Z,1.60
2023-03-26T09:26:36.032Z,3.88
2023-03-26T09:29:32.959Z,2.13
2023-03-26T09:32:09.515Z,3.60
2023-03-26T09:35:04.025Z,2.13
2023-03-26T09:37:57.871Z,2.35
2023-03-26T09:40:36.811Z,1.90
2023-03-26T09:43:20.506Z,1.60
2023-03-26T09:45:53.399Z,1.75
2023-03-26T09:48:29.271Z,1.58
2023-03-26T09:50:59.468Z,2.35
2023-03-26T09:53:39.157Z,2.10
2023-03-26T09:56:14.709Z,1.38
2023-03-26T09:58:44.874Z,1.45
2023-03-26T10:01:25.817Z,1.70
2023-03-26T10:03:59.191Z,1.50
2023-03-26T10:06:47.106Z,1.30
2023-03-26T10:09:27.294Z,1.20
2023-03-26T10:11:57.454Z,1.50
2023-03-26T10:14:33.317Z,1.38
2023-03-26T10:17:05.747Z,2.47
2023-03-26T10:20:08.628Z,2.13
2023-03-26T10:22:54.168Z,1.55
2023-03-26T10:25:24.388Z,1.60
2023-03-26T10:27:51.571Z,2.42
2023-03-26T10:30:24.765Z,1.20
2023-03-26T10:32:51.968Z,1.70
2023-03-26T10:35:31.368Z,1.27
2023-03-26T10:38:11.000Z,1.30
2023-03-26T10:40:57.183Z,1.30
2023-03-26T10:43:37.117Z,1.90
2023-03-26T10:46:23.033Z,1.70
2023-03-26T10:49:04.206Z,1.60
2023-03-26T10:51:37.283Z,2.38
2023-03-26T10:54:12.130Z,1.75
2023-03-26T10:56:41.861Z,1.70
2023-03-26T10:59:12.044Z,2.03
2023-03-26T11:01:39.569Z,1.60
2023-03-26T11:04:12.732Z,1.85
2023-03-26T11:06:51.160Z,1.65
2023-03-26T11:09:29.437Z,1.70
2023-03-26T11:12:25.713Z,1.60
2023-03-26T11:15:12.409Z,2.15
2023-03-26T11:18:02.240Z,2.13
2023-03-26T11:20:48.311Z,1.42
2023-03-26T11:23:23.419Z,1.63
2023-03-26T11:26:20.258Z,1.92
2023-03-26T11:29:03.900Z,1.80
2023-03-26T11:31:47.098Z,1.73
2023-03-26T11:34:19.193Z,1.70
2023-03-26T11:36:52.653Z,1.75
2023-03-26T11:41:47.352Z,1.90
2023-03-26T11:44:21.678Z,1.08
2023-03-26T11:46:50.407Z,1.05
2023-03-26T11:49:19.364Z,1.02
2023-03-26T11:51:48.575Z,0.70
2023-03-26T11:54:16.440Z,0.50
2023-03-26T11:57:05.755Z,0.40
2023-03-26T11:59:45.201Z,0.40
2023-03-26T12:02:32.513Z,0.28
2023-03-26T12:05:19.550Z,0.63
2023-03-26T12:07:48.351Z,0.20
2023-03-26T12:10:25.210Z,0.20
2023-03-26T12:12:54.394Z,0.30
2023-03-26T12:15:22.171Z,0.10
2023-03-26T12:17:55.413Z,0.40
2023-03-26T12:20:36.000Z,1.52
2023-03-26T12:23:05.391Z,0.45
2023-03-26T12:25:34.058Z,0.82
2023-03-26T12:28:06.068Z,0.40
2023-03-26T12:30:34.788Z,0.30
2023-03-26T12:33:07.193Z,0.30
2023-03-26T12:35:35.390Z,0.40
2023-03-26T12:38:23.199Z,0.40
2023-03-26T12:41:04.284Z,0.35
2023-03-26T12:44:53.576Z,0.40
2023-03-26T12:47:57.024Z,0.20
2023-03-26T12:49:20.060Z,0.30
2023-03-26T12:51:47.249Z,0.32
2023-03-26T12:54:33.832Z,0.30
2023-03-26T12:57:13.479Z,0.30
2023-03-26T12:59:48.786Z,0.25
2023-03-26T13:02:35.697Z,0.47
2023-03-26T13:05:21.644Z,0.20
2023-03-26T13:08:07.963Z,0.30
2023-03-26T13:10:49.889Z,0.20
2023-03-26T13:13:21.771Z,0.40
2023-03-26T13:15:59.091Z,0.47
2023-03-26T13:18:48.271Z,0.40
2023-03-26T13:21:23.350Z,0.40
2023-03-26T13:23:56.413Z,0.88
2023-03-26T13:26:37.375Z,0.70
2023-03-26T13:29:13.022Z,0.40
2023-03-26T13:31:44.577Z,0.70
2023-03-26T13:34:18.548Z,0.73
2023-03-26T13:37:04.295Z,0.40
2023-03-26T13:39:34.619Z,0.28
2023-03-26T13:42:16.057Z,0.40
2023-03-26T13:45:05.857Z,0.35
2023-03-26T13:47:38.117Z,0.20
2023-03-26T13:50:27.332Z,0.20
2023-03-26T13:53:00.680Z,0.10
2023-03-26T13:55:34.421Z,0.30
2023-03-26T13:58:11.427Z,0.20
2023-03-26T14:01:11.197Z,0.30
2023-03-26T14:03:53.483Z,0.20
2023-03-26T14:06:23.839Z,0.30
2023-03-26T14:08:55.174Z,0.20
2023-03-26T14:11:26.366Z,0.20
2023-03-26T14:14:04.004Z,0.63
2023-03-26T14:16:39.225Z,1.30
2023-03-26T14:19:12.627Z,1.23
2023-03-26T14:21:55.345Z,0.57
2023-03-26T14:24:34.898Z,0.40
2023-03-26T14:27:10.960Z,0.35
2023-03-26T14:29:57.683Z,0.47
2023-03-26T14:32:25.404Z,0.20
2023-03-26T14:35:11.752Z,0.30
2023-03-26T14:37:38.943Z,0.65
2023-03-26T14:40:24.286Z,0.30
2023-03-26T14:42:59.291Z,0.50
2023-03-26T14:45:26.410Z,3.28
2023-03-26T14:48:11.377Z,0.77
2023-03-26T14:50:48.112Z,0.30
2023-03-26T14:53:35.676Z,0.43
2023-03-26T14:56:17.061Z,0.47
2023-03-26T14:58:44.206Z,0.60
2023-03-26T15:01:23.148Z,1.38
2023-03-26T15:03:50.404Z,1.48
2023-03-26T15:06:29.831Z,0.77
2023-03-26T15:09:24.560Z,0.47
2023-03-26T15:12:12.616Z,0.52
2023-03-26T15:14:55.369Z,0.77
2023-03-26T15:17:37.601Z,0.70
2023-03-26T15:20:27.446Z,1.10
2023-03-26T15:23:11.337Z,0.70
2023-03-26T15:25:54.517Z,0.60
2023-03-26T15:28:48.232Z,0.90
2023-03-26T15:31:31.083Z,0.63
2023-03-26T15:34:01.790Z,0.70
2023-03-26T15:36:32.801Z,0.90
2023-03-26T15:39:21.640Z,0.65
2023-03-26T15:41:56.411Z,0.90
2023-03-26T15:44:25.559Z,1.17
2023-03-26T15:46:55.995Z,0.80
2023-03-26T15:49:31.317Z,0.88
2023-03-26T15:52:12.594Z,1.50
2023-03-26T15:54:54.683Z,2.25
2023-03-26T15:57:42.616Z,3.15
2023-03-26T16:00:19.773Z,1.92
2023-03-26T16:03:11.069Z,0.85
2023-03-26T16:05:47.626Z,0.55
2023-03-26T16:08:23.391Z,0.65
2023-03-26T16:11:07.942Z,1.23
2023-03-26T16:13:35.584Z,3.80
2023-03-26T16:16:07.124Z,1.50
2023-03-26T16:18:35.858Z,0.52
2023-03-26T16:21:04.471Z,1.05
2023-03-26T16:23:31.755Z,0.80
2023-03-26T16:26:01.233Z,0.82
2023-03-26T16:28:30.262Z,0.75
2023-03-26T16:31:23.523Z,0.95
2023-03-26T16:34:09.279Z,0.50
2023-03-26T16:36:37.765Z,0.70
2023-03-26T16:39:05.036Z,0.90
2023-03-26T16:41:50.207Z,0.70
2023-03-26T16:44:40.854Z,0.65
2023-03-26T16:47:20.033Z,0.57
2023-03-26T16:50:07.542Z,0.50
2023-03-26T16:52:42.848Z,0.60
2023-03-26T16:55:19.418Z,0.50
2023-03-26T16:57:58.694Z,0.43
2023-03-26T17:00:32.425Z,0.43
2023-03-26T17:03:03.708Z,0.57
2023-03-26T17:05:49.630Z,0.50
2023-03-26T17:08:17.094Z,0.35
2023-03-26T17:10:47.443Z,0.30
2023-03-26T17:13:28.103Z,0.60
2023-03-26T17:16:24.817Z,0.40
2023-03-26T17:19:00.690Z,0.30
2023-03-26T17:21:47.202Z,0.50
2023-03-26T17:24:44.013Z,0.60
2023-03-26T17:27:30.865Z,0.77
2023-03-26T17:30:07.543Z,1.13
2023-03-26T17:32:55.993Z,0.80
2023-03-26T17:35:36.496Z,0.95
2023-03-26T17:38:04.507Z,3.33
2023-03-26T17:40:43.954Z,4.03
2023-03-26T17:43:12.535Z,5.32
2023-03-26T17:45:43.854Z,5.90
2023-03-26T17:48:16.112Z,4.65
2023-03-26T17:50:52.458Z,2.03
2023-03-26T17:53:22.312Z,1.92
2023-03-26T17:55:51.397Z,1.85
2023-03-26T17:58:24.327Z,1.40
2023-03-26T18:00:53.442Z,2.03
2023-03-26T18:03:34.421Z,1.85
2023-03-26T18:06:09.916Z,2.25
2023-03-26T18:08:46.032Z,2.85
2023-03-26T18:11:31.718Z,2.58
2023-03-26T18:14:12.765Z,2.60
2023-03-26T18:16:41.856Z,2.90
2023-03-26T18:19:22.604Z,2.60
2023-03-26T18:22:00.436Z,1.40
2023-03-26T18:24:29.503Z,1.10
2023-03-26T18:26:56.706Z,1.45
2023-03-26T18:29:25.637Z,1.50
2023-03-26T18:32:00.445Z,1.90
2023-03-26T18:34:29.211Z,1.90
2023-03-26T18:37:01.661Z,1.95
2023-03-26T18:39:29.137Z,1.55
2023-03-26T18:41:56.361Z,3.42
2023-03-26T18:44:23.552Z,1.35
2023-03-26T18:46:54.779Z,1.65
2023-03-26T18:49:22.898Z,1.65
2023-03-26T18:51:57.248Z,1.13
2023-03-26T18:54:25.607Z,1.88
2023-03-26T18:56:52.914Z,2.20
2023-03-26T18:59:23.398Z,2.10
2023-03-26T19:01:50.931Z,1.90
2023-03-26T19:04:18.434Z,2.15
2023-03-26T19:06:46.404Z,1.88
2023-03-26T19:09:28.605Z,2.22
2023-03-26T19:11:59.711Z,2.13
2023-03-26T19:14:28.671Z,1.98
2023-03-26T19:17:01.452Z,1.20
2023-03-26T19:19:33.722Z,1.10
2023-03-26T19:22:03.115Z,1.17
2023-03-26T19:24:30.384Z,1.85
2023-03-26T19:26:57.775Z,1.20
2023-03-26T19:29:29.408Z,0.82
2023-03-26T19:32:02.467Z,1.20
2023-03-26T19:34:35.140Z,1.45
2023-03-26T19:37:18.356Z,1.70
2023-03-26T19:39:47.338Z,0.80
2023-03-26T19:42:43.315Z,0.70
2023-03-26T19:45:16.433Z,0.60
2023-03-26T19:47:50.534Z,0.60
2023-03-26T19:50:33.594Z,0.85
2023-03-26T19:53:24.202Z,0.70
2023-03-26T19:55:55.661Z,0.55
2023-03-26T19:58:22.899Z,0.50
2023-03-26T20:00:50.198Z,0.50
2023-03-26T20:03:20.341Z,0.30
2023-03-26T20:05:48.009Z,0.75
2023-03-26T20:08:17.806Z,0.63
2023-03-26T20:10:45.322Z,0.63
2023-03-26T20:13:18.409Z,0.30
2023-03-26T20:16:05.806Z,0.22
2023-03-26T20:18:35.869Z,0.20
2023-03-26T20:24:22.350Z,0.50
2023-03-26T20:26:52.718Z,0.22
2023-03-26T20:32:10.663Z,0.40
2023-03-26T20:34:40.443Z,0.30
2023-03-26T20:37:07.867Z,0.40
2023-03-26T20:39:35.536Z,0.32
2023-03-26T20:42:07.136Z,0.10
2023-03-26T20:44:34.409Z,0.30
2023-03-26T20:47:02.423Z,0.30
2023-03-26T20:49:30.290Z,0.28
2023-03-26T20:51:57.872Z,0.30
2023-03-26T20:54:26.429Z,0.10
2023-03-26T20:56:54.666Z,0.30
2023-03-26T20:59:27.142Z,0.52
2023-03-26T21:01:55.305Z,0.80
2023-03-26T21:04:23.007Z,0.70
2023-03-26T21:06:50.850Z,0.60
2023-03-26T21:09:24.342Z,1.25
2023-03-26T21:11:54.814Z,0.60
2023-03-26T21:14:40.597Z,0.65
2023-03-26T21:17:13.446Z,0.20
2023-03-26T21:19:41.624Z,0.30
2023-03-26T21:22:18.428Z,0.32
2023-03-26T21:25:10.743Z,0.50
2023-03-26T21:27:43.705Z,2.03
2023-03-26T21:30:14.642Z,1.00
2023-03-26T21:32:42.572Z,0.80
2023-03-26T21:35:10.618Z,0.90
2023-03-26T21:37:38.932Z,0.70
2023-03-26T21:40:17.006Z,0.50
2023-03-26T21:42:46.492Z,0.60
2023-03-26T21:45:14.415Z,0.50
2023-03-26T21:47:42.554Z,0.40
2023-03-26T21:50:10.954Z,0.25
2023-03-26T21:52:47.018Z,0.30
2023-03-26T21:55:19.153Z,0.40
2023-03-26T21:57:52.431Z,1.00
2023-03-26T22:00:20.808Z,0.30
2023-03-26T22:02:55.490Z,0.13
2023-03-26T22:05:33.815Z,0.30
2023-03-26T22:08:03.153Z,0.10
2023-03-26T22:10:31.227Z,0.15
2023-03-26T22:12:59.102Z,0.20
2023-03-26T22:15:30.868Z,0.10
2023-03-26T22:18:02.455Z,0.10
2023-03-26T22:20:29.903Z,0.13
2023-03-26T22:22:57.686Z,0.10
2023-03-26T22:25:25.716Z,0.30
2023-03-26T22:27:54.191Z,0.40
2023-03-26T22:30:23.018Z,0.90
2023-03-26T22:35:47.931Z,0.30
2023-03-26T22:40:59.750Z,0.38
2023-03-26T22:43:27.460Z,0.30
2023-03-26T22:48:42.626Z,0.60
2023-03-26T22:51:10.356Z,0.30
2023-03-26T23:06:04.011Z,1.27
2023-03-26T23:08:32.355Z,1.00
2023-03-26T23:10:59.485Z,1.38
2023-03-26T23:13:26.976Z,1.55
2023-03-26T23:15:55.391Z,1.30
2023-03-26T23:18:23.215Z,1.85
2023-03-26T23:20:55.397Z,1.38
2023-03-26T23:23:27.911Z,2.20
2023-03-26T23:25:59.180Z,1.90
2023-03-26T23:28:26.782Z,1.58
2023-03-26T23:30:54.897Z,1.50
2023-03-26T23:33:23.348Z,1.98
2023-03-26T23:35:51.995Z,2.35
2023-03-26T23:38:22.137Z,2.88
2023-03-26T23:40:57.395Z,1.88
2023-03-26T23:43:25.470Z,2.40
2023-03-26T23:45:53.142Z,3.00
2023-03-26T23:48:25.350Z,3.05
2023-03-26T23:51:02.943Z,2.92
2023-03-26T23:53:32.570Z,3.13
2023-03-26T23:55:59.836Z,3.70
2023-03-26T23:58:30.143Z,3.50
